Decoded Metar for UMBB (BREST in BELARUS) (IATA:N/A) | Meteo·Mobile Aviation Weather
aviador You're here:

UMBB Decoded Metar

BREST in BELARUS
Report Time2018-12-15 13:00:00
UTC Time2018-12-15 13:18:51
Flight Rules mvfr MVFR
Wind110° at 8 kt
W.Decomp.*RWY 11: 8.0 kt HW 0.8 kt LCW
W.Rank110° ranks 19
Current wind is above 110° avg. (6.8)
Visibility7000 m
Phenomena:N/A
Clouds:Overcast CB 021 Hf
Expected CloudBase > 1,200 ft AGL from Temp-Dew spread
Ceiling2,100 ft
Temp00°C (ISA -14)
Dew Point-3°C (80% RH)
AAT-5.3°C
QNH1029 hPa
Density Alt-1,722 ft
Elevation469 ft
Report Wrong Elevation
Raw Report
UMBB 151300Z 11004MPS 7000 OVC021CB 00/M03 Q1029 NOSIG=

Extra information for UMBB:More info

Metar Taf Metar & Taf Last 4 Metars F.Rules Stats Wind Profile Meteogram Temp Stats Airport Information Weather charts Add Link Nearby VenuesMetar ALERT Operation Metar Decoded Social comments